createdAt,value
2022-09-09T00:04:40.588Z,99.90
2022-09-09T00:10:11.269Z,99.90
2022-09-09T00:15:20.499Z,99.90
2022-09-09T00:20:37.511Z,99.90
2022-09-09T00:26:07.505Z,99.90
2022-09-09T00:31:17.446Z,99.90
2022-09-09T00:36:24.327Z,99.90
2022-09-09T00:42:12.877Z,99.90
2022-09-09T00:47:33.913Z,99.90
2022-09-09T00:52:58.842Z,99.90
2022-09-09T00:58:01.343Z,99.90
2022-09-09T01:03:25.544Z,99.90
2022-09-09T01:08:29.289Z,99.90
2022-09-09T01:13:37.477Z,99.90
2022-09-09T01:18:52.350Z,99.90
2022-09-09T01:24:17.227Z,99.90
2022-09-09T01:29:46.687Z,99.90
2022-09-09T01:34:52.353Z,99.90
2022-09-09T01:39:56.171Z,99.90
2022-09-09T01:44:58.642Z,99.90
2022-09-09T01:50:02.813Z,99.90
2022-09-09T01:55:07.303Z,99.90
2022-09-09T02:00:15.681Z,99.90
2022-09-09T02:05:38.008Z,99.90
2022-09-09T02:11:02.804Z,99.90
2022-09-09T02:16:28.809Z,99.90
2022-09-09T02:21:36.070Z,99.90
2022-09-09T02:26:42.591Z,99.90
2022-09-09T02:31:50.475Z,99.90
2022-09-09T02:37:00.836Z,99.90
2022-09-09T02:42:05.549Z,99.90
2022-09-09T02:47:25.477Z,99.90
2022-09-09T02:52:38.199Z,99.90
2022-09-09T02:57:43.652Z,99.90
2022-09-09T03:02:46.651Z,99.90
2022-09-09T03:07:50.726Z,99.90
2022-09-09T03:12:56.379Z,99.90
2022-09-09T03:18:00.539Z,99.90
2022-09-09T03:23:03.552Z,99.90
2022-09-09T03:28:06.106Z,99.90
2022-09-09T03:33:08.908Z,99.90
2022-09-09T03:38:11.691Z,99.90
2022-09-09T03:43:14.263Z,99.90
2022-09-09T03:48:18.179Z,99.90
2022-09-09T03:53:23.214Z,99.90
2022-09-09T03:58:27.725Z,99.90
2022-09-09T04:03:34.702Z,99.90
2022-09-09T04:08:38.347Z,99.90
2022-09-09T04:13:41.286Z,99.90
2022-09-09T04:18:46.271Z,99.90
2022-09-09T04:23:50.774Z,99.90
2022-09-09T04:28:54.079Z,99.90
2022-09-09T04:33:56.815Z,99.90
2022-09-09T04:39:00.740Z,99.90
2022-09-09T04:44:04.013Z,99.90
2022-09-09T04:49:10.927Z,99.90
2022-09-09T04:54:18.160Z,99.90
2022-09-09T04:59:22.847Z,99.90
2022-09-09T05:04:29.865Z,99.90
2022-09-09T05:09:32.420Z,99.90
2022-09-09T05:14:38.450Z,99.90
2022-09-09T05:19:42.129Z,99.90
2022-09-09T05:24:45.223Z,99.90
2022-09-09T05:29:49.216Z,99.90
2022-09-09T05:34:52.598Z,99.90
2022-09-09T05:39:56.039Z,99.90
2022-09-09T05:44:59.184Z,99.90
2022-09-09T05:50:02.706Z,99.90
2022-09-09T05:55:05.969Z,99.90
2022-09-09T06:00:09.210Z,99.90
2022-09-09T06:05:16.262Z,99.90
2022-09-09T06:10:20.021Z,99.90
2022-09-09T06:15:22.727Z,99.90
2022-09-09T06:20:26.248Z,99.90
2022-09-09T06:25:29.619Z,99.90
2022-09-09T06:30:32.416Z,99.90
2022-09-09T06:35:34.847Z,99.90
2022-09-09T06:40:37.959Z,99.90
2022-09-09T06:45:40.488Z,99.90
2022-09-09T06:50:44.429Z,99.90
2022-09-09T06:55:47.226Z,99.90
2022-09-09T07:00:50.395Z,99.90
2022-09-09T07:05:57.594Z,99.90
2022-09-09T07:11:11.699Z,99.90
2022-09-09T07:16:18.842Z,99.90
2022-09-09T07:21:22.659Z,99.90
2022-09-09T07:26:28.268Z,99.90
2022-09-09T07:31:35.393Z,99.90
2022-09-09T07:36:39.798Z,99.90
2022-09-09T07:41:50.136Z,99.90
2022-09-09T07:46:55.341Z,99.90
2022-09-09T07:52:04.535Z,99.90
2022-09-09T07:57:08.029Z,99.90
2022-09-09T08:02:13.375Z,99.90
2022-09-09T08:07:17.439Z,99.90
2022-09-09T08:12:25.890Z,99.90
2022-09-09T08:17:28.909Z,99.90
2022-09-09T08:22:33.685Z,99.90
2022-09-09T08:27:36.156Z,99.90
2022-09-09T08:32:40.993Z,99.90
2022-09-09T08:37:51.569Z,99.90
2022-09-09T08:42:58.195Z,99.90
2022-09-09T08:48:15.457Z,99.90
2022-09-09T08:53:23.855Z,99.90
2022-09-09T08:58:30.783Z,99.90
2022-09-09T09:03:52.557Z,99.90
2022-09-09T09:09:17.461Z,99.90
2022-09-09T09:14:30.189Z,99.90
2022-09-09T09:19:42.030Z,99.90
2022-09-09T09:24:50.037Z,99.90
2022-09-09T09:30:21.513Z,99.90
2022-09-09T09:35:20.158Z,99.90
2022-09-09T09:40:24.308Z,99.90
2022-09-09T09:45:35.494Z,99.90
2022-09-09T09:50:55.705Z,99.90
2022-09-09T09:55:59.995Z,99.90
2022-09-09T10:01:02.615Z,99.90
2022-09-09T10:06:06.957Z,99.90
2022-09-09T10:11:18.433Z,99.90
2022-09-09T10:16:53.448Z,99.90
2022-09-09T10:22:21.207Z,99.90
2022-09-09T10:27:32.536Z,99.90
2022-09-09T10:32:51.999Z,99.90
2022-09-09T10:38:15.011Z,99.70
2022-09-09T10:43:36.015Z,99.80
2022-09-09T10:48:43.580Z,96.60
2022-09-09T10:54:04.782Z,94.60
2022-09-09T10:59:15.428Z,94.80
2022-09-09T11:04:26.848Z,93.40
2022-09-09T11:09:34.017Z,92.60
2022-09-09T11:15:03.035Z,91.30
2022-09-09T11:20:07.942Z,91.90
2022-09-09T11:25:38.804Z,90.90
2022-09-09T11:30:56.190Z,90.30
2022-09-09T11:36:32.106Z,80.70
2022-09-09T11:41:38.186Z,82.10
2022-09-09T11:46:42.494Z,76.70
2022-09-09T11:51:44.875Z,75.50
2022-09-09T11:56:48.043Z,77.60
2022-09-09T12:02:01.065Z,79.40
2022-09-09T12:07:22.723Z,77.00
2022-09-09T12:12:28.914Z,72.20
2022-09-09T12:17:32.948Z,67.60
2022-09-09T12:22:41.200Z,65.50
2022-09-09T12:27:58.427Z,64.60
2022-09-09T12:33:12.682Z,61.90
2022-09-09T12:38:23.871Z,61.10
2022-09-09T12:43:28.527Z,58.50
2022-09-09T12:48:43.163Z,58.50
2022-09-09T12:53:47.116Z,58.90
2022-09-09T12:58:52.589Z,60.00
2022-09-09T13:03:55.641Z,59.40
2022-09-09T13:09:00.689Z,59.30
2022-09-09T13:14:03.867Z,61.50
2022-09-09T13:19:14.643Z,57.50
2022-09-09T13:24:31.118Z,54.40
2022-09-09T13:29:34.016Z,56.40
2022-09-09T13:34:37.137Z,59.00
2022-09-09T13:39:39.672Z,56.50
2022-09-09T13:44:42.757Z,54.90
2022-09-09T13:49:46.782Z,56.10
2022-09-09T13:54:53.278Z,58.00
2022-09-09T14:00:05.180Z,58.70
2022-09-09T14:05:08.340Z,58.30
2022-09-09T14:10:11.663Z,53.00
2022-09-09T14:15:15.494Z,50.50
2022-09-09T14:20:18.671Z,47.80
2022-09-09T14:25:21.179Z,48.90
2022-09-09T14:30:23.549Z,47.00
2022-09-09T14:35:25.950Z,46.20
2022-09-09T14:40:28.439Z,47.30
2022-09-09T14:45:31.188Z,44.80
2022-09-09T14:50:35.904Z,45.30
2022-09-09T14:55:38.345Z,43.40
2022-09-09T15:00:40.819Z,42.50
2022-09-09T15:05:43.295Z,41.80
2022-09-09T15:10:46.264Z,40.80
2022-09-09T15:15:51.165Z,40.80
2022-09-09T15:20:54.170Z,41.00
2022-09-09T15:25:57.515Z,44.20
2022-09-09T15:31:07.375Z,45.40
2022-09-09T15:36:23.190Z,44.60
2022-09-09T15:41:26.556Z,47.30
2022-09-09T15:46:30.776Z,50.40
2022-09-09T15:51:49.224Z,53.20
2022-09-09T15:56:56.602Z,56.10
2022-09-09T16:02:01.075Z,58.50
2022-09-09T16:07:05.721Z,60.10
2022-09-09T16:12:10.684Z,62.40
2022-09-09T16:17:13.282Z,62.80
2022-09-09T16:22:16.665Z,63.40
2022-09-09T16:27:19.173Z,62.10
2022-09-09T16:32:21.567Z,63.80
2022-09-09T16:37:24.028Z,65.30
2022-09-09T16:42:26.677Z,65.10
2022-09-09T16:47:29.065Z,65.30
2022-09-09T16:52:31.410Z,66.70
2022-09-09T16:57:33.795Z,68.90
2022-09-09T17:02:36.220Z,72.40
2022-09-09T17:07:39.592Z,72.10
2022-09-09T17:12:42.542Z,73.20
2022-09-09T17:17:46.215Z,80.00
2022-09-09T17:22:49.968Z,82.40
2022-09-09T17:27:52.505Z,83.90
2022-09-09T17:32:54.858Z,87.80
2022-09-09T17:37:57.332Z,89.60
2022-09-09T17:43:00.450Z,90.70
2022-09-09T17:48:03.802Z,91.70
2022-09-09T17:53:06.238Z,92.40
2022-09-09T17:58:08.809Z,93.20
2022-09-09T18:03:11.256Z,93.70
2022-09-09T18:08:13.653Z,94.70
2022-09-09T18:13:16.487Z,95.50
2022-09-09T18:18:18.945Z,95.90
2022-09-09T18:23:21.311Z,96.70
2022-09-09T18:28:25.040Z,97.70
2022-09-09T18:33:27.579Z,98.00
2022-09-09T18:38:33.075Z,99.30
2022-09-09T18:43:35.885Z,99.90
2022-09-09T18:48:39.245Z,99.90
2022-09-09T18:53:42.052Z,99.90
2022-09-09T18:58:44.570Z,99.90
2022-09-09T19:03:47.800Z,99.90
2022-09-09T19:08:54.758Z,99.90
2022-09-09T19:14:02.359Z,99.90
2022-09-09T19:19:12.356Z,99.90
2022-09-09T19:24:18.801Z,99.90
2022-09-09T19:29:23.909Z,99.90
2022-09-09T19:34:26.491Z,99.90
2022-09-09T19:39:28.951Z,99.90
2022-09-09T19:44:31.351Z,99.90
2022-09-09T19:49:34.242Z,99.90
2022-09-09T19:54:36.627Z,99.90
2022-09-09T19:59:38.981Z,99.90
2022-09-09T20:04:41.898Z,99.90
2022-09-09T20:09:44.266Z,99.90
2022-09-09T20:14:46.799Z,99.90
2022-09-09T20:19:49.183Z,99.90
2022-09-09T20:24:51.639Z,99.90
2022-09-09T20:29:54.155Z,99.90
2022-09-09T20:34:56.483Z,99.90
2022-09-09T20:40:02.085Z,99.90
2022-09-09T20:45:05.122Z,99.90
2022-09-09T20:50:08.024Z,99.90
2022-09-09T20:55:10.444Z,99.90
2022-09-09T21:00:13.239Z,99.90
2022-09-09T21:05:17.249Z,99.90
2022-09-09T21:10:22.028Z,99.90
2022-09-09T21:15:24.511Z,99.90
2022-09-09T21:20:26.987Z,99.90
2022-09-09T21:25:29.414Z,99.90
2022-09-09T21:30:39.291Z,99.90
2022-09-09T21:35:43.441Z,99.90
2022-09-09T21:40:46.125Z,99.90
2022-09-09T21:45:49.723Z,99.90
2022-09-09T21:50:53.018Z,99.90
2022-09-09T21:56:06.832Z,99.90
2022-09-09T22:01:15.580Z,99.90
2022-09-09T22:06:19.612Z,99.90
2022-09-09T22:11:23.375Z,99.90
2022-09-09T22:16:25.864Z,99.90
2022-09-09T22:21:31.207Z,99.90
2022-09-09T22:26:36.562Z,99.90
2022-09-09T22:31:39.042Z,99.90
2022-09-09T22:36:42.150Z,99.90
2022-09-09T22:41:44.967Z,99.90
2022-09-09T22:46:47.876Z,99.90
2022-09-09T22:51:50.474Z,99.90
2022-09-09T22:56:52.848Z,99.90
2022-09-09T23:01:56.878Z,99.90
2022-09-09T23:07:00.097Z,99.90
2022-09-09T23:12:04.509Z,99.90
2022-09-09T23:17:08.849Z,99.90
2022-09-09T23:22:11.571Z,99.90
2022-09-09T23:27:13.917Z,99.90
2022-09-09T23:32:17.655Z,99.90
2022-09-09T23:37:20.256Z,99.90
2022-09-09T23:42:23.717Z,99.90
2022-09-09T23:47:26.129Z,99.90
2022-09-09T23:52:28.522Z,99.90
2022-09-09T23:57:30.961Z,99.90
